Time;durP1;ratioP1;P1;durP2;ratioP2;P2;SDS_P1;SDS_P2;PMS_P1;PMS_P2;Temp;Humidity;BMP_temperature;BMP_pressure;BME280_temperature;BME280_humidity;BME280_pressure;Samples;Min_cycle;Max_cycle;Signal;HPM_P1;HPM_P2
2022/09/08 00:01:00;;;;;;;;;;;27.90;94.40;;;;;;5106723;28;19912;-55
2022/09/08 00:03:26;;;;;;;;;;;27.90;94.30;;;;;;5106242;28;19947;-54
2022/09/08 00:05:56;;;;;;;;;;;27.90;94.00;;;;;;5106463;28;19908;-50
2022/09/08 00:08:22;;;;;;;;;;;27.90;94.00;;;;;;5106014;28;19920;-53
2022/09/08 00:10:50;;;;;;;;;;;27.90;94.00;;;;;;5106411;28;19904;-55
2022/09/08 00:13:16;;;;;;;;;;;27.90;93.80;;;;;;5105155;28;19912;-54
2022/09/08 00:15:42;;;;;;;;;;;27.90;93.80;;;;;;5106245;28;19920;-53
2022/09/08 00:18:09;;;;;;;;;;;27.90;93.80;;;;;;5105590;28;19920;-54
2022/09/08 00:20:35;;;;;;;;;;;27.90;93.80;;;;;;5106291;28;20099;-56
2022/09/08 00:23:01;;;;;;;;;;;27.80;93.80;;;;;;5105535;28;19915;-55
2022/09/08 00:25:27;;;;;;;;;;;27.80;94.00;;;;;;5106058;28;19910;-59
2022/09/08 00:27:53;;;;;;;;;;;27.80;93.90;;;;;;5105692;28;19919;-57
2022/09/08 00:30:19;;;;;;;;;;;27.80;93.90;;;;;;5105863;28;20204;-53
2022/09/08 00:32:46;;;;;;;;;;;27.80;94.00;;;;;;5105764;28;19916;-58
2022/09/08 00:35:14;;;;;;;;;;;27.80;94.10;;;;;;5105583;28;19915;-58
2022/09/08 00:37:43;;;;;;;;;;;27.80;94.10;;;;;;5105370;28;19985;-56
2022/09/08 00:40:09;;;;;;;;;;;27.80;94.10;;;;;;5105608;28;19943;-56
2022/09/08 00:42:39;;;;;;;;;;;27.80;94.20;;;;;;5105334;28;19960;-54
2022/09/08 00:45:05;;;;;;;;;;;27.80;94.20;;;;;;5105490;28;19908;-55
2022/09/08 00:47:35;;;;;;;;;;;27.80;94.30;;;;;;5105374;28;19908;-55
2022/09/08 00:50:06;;;;;;;;;;;27.80;94.30;;;;;;5105340;28;20185;-53
2022/09/08 00:52:41;;;;;;;;;;;27.80;94.30;;;;;;5105262;28;20263;-58
2022/09/08 00:55:10;;;;;;;;;;;27.80;94.30;;;;;;5105279;28;19923;-57
2022/09/08 00:57:36;;;;;;;;;;;27.80;94.30;;;;;;5105027;28;19918;-57
2022/09/08 01:00:04;;;;;;;;;;;27.80;94.40;;;;;;5105262;28;19949;-57
2022/09/08 01:02:30;;;;;;;;;;;27.70;94.30;;;;;;5105106;28;19935;-56
2022/09/08 01:05:02;;;;;;;;;;;27.70;94.30;;;;;;5105115;28;19931;-58
2022/09/08 01:13:26;;;;;;;;;;;27.70;94.40;;;;;;5104746;28;19949;-58
2022/09/08 01:15:52;;;;;;;;;;;27.70;94.40;;;;;;5105169;28;19988;-59
2022/09/08 01:18:18;;;;;;;;;;;27.70;94.50;;;;;;5104758;28;19916;-57
2022/09/08 01:20:50;;;;;;;;;;;27.70;94.50;;;;;;5104931;28;20083;-56
2022/09/08 01:23:16;;;;;;;;;;;27.70;94.40;;;;;;5104338;28;19912;-56
2022/09/08 01:25:45;;;;;;;;;;;27.70;94.40;;;;;;5105045;28;20185;-53
2022/09/08 01:28:15;;;;;;;;;;;27.60;94.40;;;;;;5104769;28;19913;-54
2022/09/08 01:30:42;;;;;;;;;;;27.70;94.40;;;;;;5105131;28;19908;-62
2022/09/08 01:33:09;;;;;;;;;;;27.70;94.50;;;;;;5104434;28;19912;-52
2022/09/08 01:35:38;;;;;;;;;;;27.60;94.40;;;;;;5104283;28;19947;-59
2022/09/08 01:38:05;;;;;;;;;;;27.70;94.50;;;;;;5104484;28;19912;-54
2022/09/08 01:40:31;;;;;;;;;;;27.60;94.40;;;;;;5104885;28;19908;-57
2022/09/08 01:42:57;;;;;;;;;;;27.60;94.40;;;;;;5104372;28;20209;-57
2022/09/08 01:45:24;;;;;;;;;;;27.60;94.40;;;;;;5104530;28;19979;-56
2022/09/08 01:47:50;;;;;;;;;;;27.70;94.50;;;;;;5104378;28;19912;-59
2022/09/08 01:50:17;;;;;;;;;;;27.60;94.60;;;;;;5104332;28;19908;-58
2022/09/08 01:52:44;;;;;;;;;;;27.60;94.60;;;;;;5104263;28;19912;-56
2022/09/08 01:55:10;;;;;;;;;;;27.60;94.60;;;;;;5104297;28;19953;-58
2022/09/08 01:57:37;;;;;;;;;;;27.60;94.70;;;;;;5103997;28;19953;-59
2022/09/08 02:00:04;;;;;;;;;;;27.60;94.70;;;;;;5104466;28;19908;-54
2022/09/08 02:02:31;;;;;;;;;;;27.60;94.70;;;;;;5104335;28;19908;-57
2022/09/08 02:04:57;;;;;;;;;;;27.50;94.70;;;;;;5104167;28;19912;-54
2022/09/08 02:07:23;;;;;;;;;;;27.60;94.80;;;;;;5104458;28;19954;-55
2022/09/08 02:09:49;;;;;;;;;;;27.50;94.80;;;;;;5104487;28;19904;-56
2022/09/08 02:12:15;;;;;;;;;;;27.50;94.80;;;;;;5103980;28;20219;-55
2022/09/08 02:14:41;;;;;;;;;;;27.50;94.80;;;;;;5104101;28;20101;-56
2022/09/08 02:17:08;;;;;;;;;;;27.50;94.90;;;;;;5103940;28;19931;-55
2022/09/08 02:19:34;;;;;;;;;;;27.50;94.90;;;;;;5104006;28;19931;-55
2022/09/08 02:22:00;;;;;;;;;;;27.50;94.90;;;;;;5104138;28;19927;-56
2022/09/08 02:24:26;;;;;;;;;;;27.50;94.90;;;;;;5104299;28;19991;-55
2022/09/08 02:26:52;;;;;;;;;;;27.40;94.80;;;;;;5104027;28;19916;-53
2022/09/08 02:29:18;;;;;;;;;;;27.40;94.90;;;;;;5103841;28;19908;-57
2022/09/08 02:31:44;;;;;;;;;;;27.40;94.90;;;;;;5104157;28;19958;-54
2022/09/08 02:34:12;;;;;;;;;;;27.40;94.90;;;;;;5103872;28;19943;-56
2022/09/08 02:36:38;;;;;;;;;;;27.40;94.90;;;;;;5106615;28;19919;-58
2022/09/08 02:39:04;;;;;;;;;;;27.40;94.90;;;;;;5107818;28;20299;-54
2022/09/08 02:41:30;;;;;;;;;;;27.40;94.90;;;;;;5108030;28;19912;-57
2022/09/08 02:43:57;;;;;;;;;;;27.40;94.90;;;;;;5107424;28;19908;-55
2022/09/08 02:46:24;;;;;;;;;;;27.40;94.80;;;;;;5107534;28;20104;-56
2022/09/08 02:48:51;;;;;;;;;;;27.40;94.80;;;;;;5107552;28;19912;-58
2022/09/08 02:51:20;;;;;;;;;;;27.40;94.80;;;;;;5107464;28;19924;-55
2022/09/08 02:53:46;;;;;;;;;;;27.30;94.80;;;;;;5107504;28;19949;-56
2022/09/08 02:56:12;;;;;;;;;;;27.40;94.80;;;;;;5107334;28;20247;-55
2022/09/08 02:58:38;;;;;;;;;;;27.30;94.70;;;;;;5107271;28;19908;-54
2022/09/08 03:01:05;;;;;;;;;;;27.30;94.70;;;;;;5107802;28;19908;-56
2022/09/08 03:03:31;;;;;;;;;;;27.30;94.70;;;;;;5107329;28;20112;-56
2022/09/08 03:05:58;;;;;;;;;;;27.30;94.60;;;;;;5107565;28;19943;-60
2022/09/08 03:08:24;;;;;;;;;;;27.30;94.60;;;;;;5107263;28;19912;-55
2022/09/08 03:10:50;;;;;;;;;;;27.30;94.60;;;;;;5107806;28;19908;-58
2022/09/08 03:13:17;;;;;;;;;;;27.30;94.50;;;;;;5106936;28;19908;-56
2022/09/08 03:15:44;;;;;;;;;;;27.30;94.50;;;;;;5107417;28;19947;-55
2022/09/08 03:18:10;;;;;;;;;;;27.30;94.50;;;;;;5106876;28;20204;-54
2022/09/08 03:20:37;;;;;;;;;;;27.30;94.50;;;;;;5107534;28;20188;-52
2022/09/08 03:23:03;;;;;;;;;;;27.30;94.50;;;;;;5107056;28;19925;-55
2022/09/08 03:25:30;;;;;;;;;;;27.30;94.50;;;;;;5107375;28;19951;-56
2022/09/08 03:27:56;;;;;;;;;;;27.30;94.50;;;;;;5106913;28;19979;-55
2022/09/08 03:30:22;;;;;;;;;;;27.30;94.50;;;;;;5107190;28;19966;-53
2022/09/08 03:32:48;;;;;;;;;;;27.20;94.40;;;;;;5106883;28;20108;-53
2022/09/08 03:35:16;;;;;;;;;;;27.30;94.40;;;;;;5107083;28;19919;-56
2022/09/08 03:37:42;;;;;;;;;;;27.30;94.30;;;;;;5106673;28;19934;-53
2022/09/08 03:40:11;;;;;;;;;;;27.20;94.30;;;;;;5106842;28;19912;-54
2022/09/08 03:42:38;;;;;;;;;;;27.20;94.40;;;;;;5106577;28;19952;-55
2022/09/08 03:45:06;;;;;;;;;;;27.20;94.30;;;;;;5106774;28;19904;-53
2022/09/08 03:47:32;;;;;;;;;;;27.20;94.30;;;;;;5106639;28;20199;-53
2022/09/08 03:49:59;;;;;;;;;;;27.20;94.20;;;;;;5106514;28;20188;-55
2022/09/08 03:52:25;;;;;;;;;;;27.20;94.20;;;;;;5106365;28;19912;-54
2022/09/08 03:54:52;;;;;;;;;;;27.20;94.20;;;;;;5106544;28;19953;-55
2022/09/08 03:57:22;;;;;;;;;;;27.20;94.10;;;;;;5106261;28;19935;-56
2022/09/08 03:59:52;;;;;;;;;;;27.10;94.00;;;;;;5106344;28;19947;-55
2022/09/08 04:02:19;;;;;;;;;;;27.20;94.00;;;;;;5106292;28;19989;-56
2022/09/08 04:04:49;;;;;;;;;;;27.20;94.00;;;;;;5106225;28;19922;-58
2022/09/08 04:07:16;;;;;;;;;;;27.10;93.90;;;;;;5106261;28;20212;-58
2022/09/08 04:09:42;;;;;;;;;;;27.20;93.90;;;;;;5106387;28;19919;-59
2022/09/08 04:12:08;;;;;;;;;;;27.10;93.80;;;;;;5106091;28;19919;-58
2022/09/08 04:14:35;;;;;;;;;;;27.10;93.90;;;;;;5106202;28;19912;-56
2022/09/08 04:17:01;;;;;;;;;;;27.10;93.80;;;;;;5105845;28;19924;-54
2022/09/08 04:19:27;;;;;;;;;;;27.10;93.90;;;;;;5106113;28;19908;-58
2022/09/08 04:21:53;;;;;;;;;;;27.10;94.00;;;;;;5105765;28;19935;-54
2022/09/08 04:24:20;;;;;;;;;;;27.10;94.00;;;;;;5105914;28;19908;-59
2022/09/08 04:26:46;;;;;;;;;;;27.10;94.00;;;;;;5105681;28;19912;-57
2022/09/08 04:29:13;;;;;;;;;;;27.10;94.00;;;;;;5105588;28;20157;-53
2022/09/08 04:31:39;;;;;;;;;;;27.10;94.10;;;;;;5105640;28;20197;-56
2022/09/08 04:34:05;;;;;;;;;;;27.00;94.10;;;;;;5105607;28;19904;-57
2022/09/08 04:36:32;;;;;;;;;;;27.00;94.10;;;;;;5105415;28;19923;-55
2022/09/08 04:39:00;;;;;;;;;;;27.10;94.20;;;;;;5105551;28;19908;-55
2022/09/08 04:41:27;;;;;;;;;;;27.00;94.20;;;;;;5105575;28;19974;-56
2022/09/08 04:43:55;;;;;;;;;;;27.00;94.30;;;;;;5105029;28;19915;-62
2022/09/08 04:46:22;;;;;;;;;;;27.00;94.30;;;;;;5105362;28;19975;-56
2022/09/08 04:48:48;;;;;;;;;;;27.00;94.30;;;;;;5105233;28;19908;-57
2022/09/08 04:51:16;;;;;;;;;;;27.00;94.30;;;;;;5105055;28;19955;-54
2022/09/08 04:53:42;;;;;;;;;;;27.00;94.30;;;;;;5105346;28;19908;-57
2022/09/08 04:56:09;;;;;;;;;;;27.00;94.30;;;;;;5105652;28;20218;-55
2022/09/08 04:58:36;;;;;;;;;;;27.00;94.40;;;;;;5104630;28;19942;-56
2022/09/08 05:01:07;;;;;;;;;;;26.90;94.40;;;;;;5105593;28;19915;-56
2022/09/08 05:03:33;;;;;;;;;;;26.90;94.30;;;;;;5105030;28;20143;-58
2022/09/08 05:06:03;;;;;;;;;;;26.90;94.30;;;;;;5105449;28;19908;-55
2022/09/08 05:08:30;;;;;;;;;;;26.90;94.30;;;;;;5104955;28;19912;-55
2022/09/08 05:10:56;;;;;;;;;;;26.90;94.30;;;;;;5105458;28;20274;-57
2022/09/08 05:13:22;;;;;;;;;;;26.90;94.30;;;;;;5104858;28;19996;-59
2022/09/08 05:15:48;;;;;;;;;;;26.90;94.30;;;;;;5105142;28;19946;-57
2022/09/08 05:18:14;;;;;;;;;;;26.90;94.30;;;;;;5104681;28;20109;-56
2022/09/08 05:20:40;;;;;;;;;;;26.90;94.30;;;;;;5105012;28;20203;-55
2022/09/08 05:23:06;;;;;;;;;;;26.90;94.20;;;;;;5104774;28;19908;-53
2022/09/08 05:25:32;;;;;;;;;;;26.90;94.10;;;;;;5105091;28;20125;-52
2022/09/08 05:27:58;;;;;;;;;;;26.80;94.10;;;;;;5104591;28;19912;-57
2022/09/08 05:30:24;;;;;;;;;;;26.90;94.10;;;;;;5105088;28;19916;-55
2022/09/08 05:32:51;;;;;;;;;;;26.90;94.10;;;;;;5104765;28;20196;-57
2022/09/08 05:35:17;;;;;;;;;;;26.80;94.00;;;;;;5104428;28;19915;-56
2022/09/08 05:37:43;;;;;;;;;;;26.80;94.00;;;;;;5104470;28;19934;-56
2022/09/08 05:40:09;;;;;;;;;;;26.80;93.90;;;;;;5104757;28;19908;-55
2022/09/08 05:42:35;;;;;;;;;;;26.80;93.90;;;;;;5104492;28;19919;-54
2022/09/08 05:45:01;;;;;;;;;;;26.80;93.90;;;;;;5104633;28;19908;-55
2022/09/08 05:47:27;;;;;;;;;;;26.80;93.90;;;;;;5104360;28;19975;-56
2022/09/08 05:49:54;;;;;;;;;;;26.80;93.80;;;;;;5104698;28;19908;-56
2022/09/08 05:52:20;;;;;;;;;;;26.80;93.80;;;;;;5104330;28;19908;-52
2022/09/08 05:54:46;;;;;;;;;;;26.80;93.80;;;;;;5104401;28;20088;-53
2022/09/08 05:57:13;;;;;;;;;;;26.80;93.90;;;;;;5104268;28;19913;-53
2022/09/08 05:59:40;;;;;;;;;;;26.70;93.80;;;;;;5104475;28;19979;-52
2022/09/08 06:02:07;;;;;;;;;;;26.70;93.80;;;;;;5104188;28;20108;-54
2022/09/08 06:04:33;;;;;;;;;;;26.70;93.80;;;;;;5104463;28;19911;-55
2022/09/08 06:06:59;;;;;;;;;;;26.70;93.80;;;;;;5104160;28;19912;-54
2022/09/08 06:09:25;;;;;;;;;;;26.70;93.90;;;;;;5104465;28;19908;-52
2022/09/08 06:11:52;;;;;;;;;;;26.70;93.80;;;;;;5107894;28;19912;-56
2022/09/08 06:14:18;;;;;;;;;;;26.70;93.80;;;;;;5108266;28;19908;-58
2022/09/08 06:16:44;;;;;;;;;;;26.70;93.80;;;;;;5108164;28;19924;-51
2022/09/08 06:19:11;;;;;;;;;;;26.70;93.80;;;;;;5108314;28;19908;-53
2022/09/08 06:21:37;;;;;;;;;;;26.70;93.80;;;;;;5108137;28;20238;-52
2022/09/08 06:24:05;;;;;;;;;;;26.60;93.70;;;;;;5107909;28;19943;-59
2022/09/08 06:26:34;;;;;;;;;;;26.60;93.70;;;;;;5108258;28;19919;-52
2022/09/08 06:29:19;;;;;;;;;;;26.70;93.80;;;;;;5107861;28;19909;-58
2022/09/08 06:31:58;;;;;;;;;;;26.60;93.80;;;;;;5107932;28;19911;-54
2022/09/08 06:34:26;;;;;;;;;;;26.60;93.80;;;;;;5107780;28;19947;-54
2022/09/08 06:36:55;;;;;;;;;;;26.70;93.90;;;;;;5108025;28;19954;-53
2022/09/08 06:39:24;;;;;;;;;;;26.60;93.90;;;;;;5107979;28;19930;-54
2022/09/08 06:41:56;;;;;;;;;;;26.60;93.90;;;;;;5107783;28;19912;-53
2022/09/08 06:44:26;;;;;;;;;;;26.60;93.90;;;;;;5107875;28;19915;-51
2022/09/08 06:46:54;;;;;;;;;;;26.60;93.90;;;;;;5107645;28;20109;-51
2022/09/08 06:49:20;;;;;;;;;;;26.60;94.00;;;;;;5107718;28;19991;-56
2022/09/08 06:51:59;;;;;;;;;;;26.60;93.90;;;;;;5107556;28;19912;-55
2022/09/08 06:54:31;;;;;;;;;;;26.60;94.00;;;;;;5107678;28;20092;-54
2022/09/08 06:57:03;;;;;;;;;;;26.50;94.00;;;;;;5107588;28;19912;-53
2022/09/08 06:59:32;;;;;;;;;;;26.50;93.90;;;;;;5107721;28;19908;-57
2022/09/08 07:02:07;;;;;;;;;;;26.50;93.90;;;;;;5107366;28;19978;-52
2022/09/08 07:04:49;;;;;;;;;;;26.50;93.90;;;;;;5107447;28;19915;-54
2022/09/08 07:07:18;;;;;;;;;;;26.50;94.00;;;;;;5107501;28;19991;-53
2022/09/08 07:09:47;;;;;;;;;;;26.50;94.00;;;;;;5107422;28;19911;-56
2022/09/08 07:12:16;;;;;;;;;;;26.50;94.10;;;;;;5107146;28;19913;-52
2022/09/08 07:14:42;;;;;;;;;;;26.50;94.10;;;;;;5107242;28;19916;-52
2022/09/08 07:17:17;;;;;;;;;;;26.50;94.20;;;;;;5107108;28;19974;-52
2022/09/08 07:19:49;;;;;;;;;;;26.50;94.20;;;;;;5106962;28;19908;-55
2022/09/08 07:22:21;;;;;;;;;;;26.50;94.20;;;;;;5106580;28;19912;-54
2022/09/08 07:24:48;;;;;;;;;;;26.50;94.30;;;;;;5106982;28;20009;-53
2022/09/08 07:27:15;;;;;;;;;;;26.40;94.30;;;;;;5107031;28;19920;-54
2022/09/08 07:29:44;;;;;;;;;;;26.40;94.30;;;;;;5107261;28;19908;-54
2022/09/08 07:32:13;;;;;;;;;;;26.40;94.40;;;;;;5106848;28;20193;-56
2022/09/08 07:34:43;;;;;;;;;;;26.40;94.50;;;;;;5106928;28;19973;-55
2022/09/08 07:37:20;;;;;;;;;;;26.40;94.50;;;;;;5106700;28;19942;-54
2022/09/08 07:40:05;;;;;;;;;;;26.40;94.60;;;;;;5106719;28;20133;-57
2022/09/08 07:42:31;;;;;;;;;;;26.40;94.60;;;;;;5106761;28;20135;-54
2022/09/08 07:44:59;;;;;;;;;;;26.40;94.70;;;;;;5106632;28;20092;-54
2022/09/08 07:47:54;;;;;;;;;;;26.40;94.70;;;;;;5106477;28;19912;-54
2022/09/08 07:50:20;;;;;;;;;;;26.40;94.70;;;;;;5034494;28;19913;-53
2022/09/08 07:52:46;;;;;;;;;;;26.40;94.70;;;;;;5106439;28;19912;-53
2022/09/08 07:55:12;;;;;;;;;;;26.40;94.80;;;;;;5106568;28;19935;-55
2022/09/08 07:57:44;;;;;;;;;;;26.40;94.80;;;;;;5106196;28;20200;-53
2022/09/08 08:00:13;;;;;;;;;;;26.40;94.80;;;;;;5106521;28;19908;-53
2022/09/08 08:02:54;;;;;;;;;;;26.40;94.90;;;;;;5106270;28;19919;-54
2022/09/08 08:05:29;;;;;;;;;;;26.40;94.90;;;;;;5106138;28;19908;-53
2022/09/08 08:08:08;;;;;;;;;;;26.30;94.90;;;;;;5106246;28;19912;-55
2022/09/08 08:10:45;;;;;;;;;;;26.30;94.90;;;;;;5106558;28;19946;-56
2022/09/08 08:13:17;;;;;;;;;;;26.30;94.90;;;;;;5105976;28;19969;-55
2022/09/08 08:15:45;;;;;;;;;;;26.30;94.90;;;;;;5106472;28;19947;-54
2022/09/08 08:18:26;;;;;;;;;;;26.30;94.90;;;;;;5105691;28;19929;-58
2022/09/08 08:21:03;;;;;;;;;;;26.30;94.90;;;;;;5106239;28;19988;-56
2022/09/08 08:23:29;;;;;;;;;;;26.30;94.90;;;;;;5105945;28;19916;-56
2022/09/08 08:26:07;;;;;;;;;;;26.30;94.90;;;;;;5106140;28;19953;-57
2022/09/08 08:28:39;;;;;;;;;;;26.30;94.80;;;;;;5105747;28;19919;-53
2022/09/08 08:31:24;;;;;;;;;;;26.30;94.80;;;;;;5106248;28;19912;-53
2022/09/08 08:34:01;;;;;;;;;;;26.30;94.90;;;;;;5104849;28;19912;-58
2022/09/08 08:36:29;;;;;;;;;;;26.30;94.90;;;;;;5105343;28;19923;-55
2022/09/08 08:39:17;;;;;;;;;;;26.30;94.90;;;;;;5105624;28;19908;-55
2022/09/08 08:41:45;;;;;;;;;;;26.30;94.90;;;;;;5105352;28;20209;-53
2022/09/08 08:44:19;;;;;;;;;;;26.30;94.90;;;;;;5105531;28;19912;-54
2022/09/08 08:46:52;;;;;;;;;;;26.30;94.90;;;;;;5105467;28;19912;-58
2022/09/08 08:49:18;;;;;;;;;;;26.30;94.90;;;;;;5105452;28;20018;-53
2022/09/08 08:51:47;;;;;;;;;;;26.30;94.90;;;;;;5105344;28;20220;-55
2022/09/08 08:54:31;;;;;;;;;;;26.30;94.90;;;;;;5105232;28;20184;-52
2022/09/08 08:57:13;;;;;;;;;;;26.30;94.90;;;;;;5105445;28;20200;-56
2022/09/08 08:59:42;;;;;;;;;;;26.30;94.90;;;;;;5105117;28;20131;-55
2022/09/08 09:02:34;;;;;;;;;;;26.30;94.90;;;;;;5105096;28;19912;-55
2022/09/08 09:05:26;;;;;;;;;;;26.30;94.90;;;;;;5105119;28;19983;-54
2022/09/08 09:08:09;;;;;;;;;;;26.30;94.90;;;;;;5074091;28;19919;-56
2022/09/08 09:10:44;;;;;;;;;;;26.30;94.90;;;;;;5105262;28;19915;-56
2022/09/08 09:13:18;;;;;;;;;;;26.30;95.00;;;;;;5104860;28;19919;-54
2022/09/08 09:16:06;;;;;;;;;;;26.20;95.00;;;;;;5105389;28;19912;-54
2022/09/08 09:19:05;;;;;;;;;;;26.20;95.10;;;;;;5104832;28;20204;-56
2022/09/08 09:21:33;;;;;;;;;;;26.30;95.20;;;;;;5060256;28;19943;-56
2022/09/08 09:24:01;;;;;;;;;;;26.20;95.20;;;;;;5104702;28;19908;-56
2022/09/08 09:26:34;;;;;;;;;;;26.20;95.20;;;;;;5104856;28;19912;-56
2022/09/08 09:29:15;;;;;;;;;;;26.20;95.20;;;;;;5104636;28;20196;-56
2022/09/08 09:32:01;;;;;;;;;;;26.20;95.20;;;;;;5104640;28;19953;-53
2022/09/08 09:34:36;;;;;;;;;;;26.20;95.10;;;;;;5104449;28;20172;-54
2022/09/08 09:37:11;;;;;;;;;;;26.20;95.20;;;;;;5104524;28;19912;-54
2022/09/08 09:39:49;;;;;;;;;;;26.20;95.20;;;;;;5104590;28;19943;-55
2022/09/08 09:42:18;;;;;;;;;;;26.20;95.20;;;;;;5104757;28;20201;-56
2022/09/08 09:44:56;;;;;;;;;;;26.20;95.20;;;;;;5104603;28;19950;-55
2022/09/08 09:47:23;;;;;;;;;;;26.20;95.50;;;;;;5104680;28;19935;-57
2022/09/08 09:49:58;;;;;;;;;;;26.20;95.30;;;;;;5104306;28;20103;-53
2022/09/08 09:52:33;;;;;;;;;;;26.20;95.30;;;;;;5104361;28;19912;-57
2022/09/08 09:55:20;;;;;;;;;;;26.20;95.40;;;;;;5104488;28;19919;-56
2022/09/08 09:57:46;;;;;;;;;;;26.20;95.30;;;;;;5103937;28;19923;-55
2022/09/08 10:00:25;;;;;;;;;;;26.20;95.30;;;;;;5104618;28;19909;-54
2022/09/08 10:02:56;;;;;;;;;;;26.20;95.40;;;;;;5104134;28;19912;-53
2022/09/08 10:05:40;;;;;;;;;;;26.20;95.40;;;;;;5104857;28;19923;-54
2022/09/08 10:08:18;;;;;;;;;;;26.20;95.40;;;;;;5104180;28;19916;-55
2022/09/08 10:10:57;;;;;;;;;;;26.20;95.40;;;;;;5104562;28;19909;-60
2022/09/08 10:13:41;;;;;;;;;;;26.20;95.50;;;;;;5104051;28;19913;-54
2022/09/08 10:16:07;;;;;;;;;;;26.20;95.50;;;;;;5104449;28;19955;-56
2022/09/08 10:18:41;;;;;;;;;;;26.10;95.50;;;;;;5104032;28;20200;-54
2022/09/08 10:21:14;;;;;;;;;;;26.20;95.60;;;;;;5104713;28;19912;-58
2022/09/08 10:23:43;;;;;;;;;;;26.10;95.60;;;;;;5104058;28;20143;-56
2022/09/08 10:26:33;;;;;;;;;;;26.10;95.60;;;;;;5104674;28;20021;-55
2022/09/08 10:29:02;;;;;;;;;;;26.10;95.60;;;;;;5103902;28;19919;-54
2022/09/08 10:31:47;;;;;;;;;;;26.10;95.60;;;;;;5103977;28;19912;-54
2022/09/08 10:34:15;;;;;;;;;;;26.10;95.60;;;;;;5104000;28;20184;-53
2022/09/08 10:36:54;;;;;;;;;;;26.10;95.70;;;;;;5103943;28;19924;-55
2022/09/08 10:39:29;;;;;;;;;;;26.10;95.70;;;;;;5104082;28;20073;-55
2022/09/08 10:42:10;;;;;;;;;;;26.10;95.70;;;;;;5104197;28;20204;-55
2022/09/08 10:44:54;;;;;;;;;;;26.10;95.70;;;;;;5104217;28;19908;-55
2022/09/08 10:47:47;;;;;;;;;;;26.10;95.70;;;;;;5103937;28;19948;-55
2022/09/08 10:50:18;;;;;;;;;;;26.10;95.70;;;;;;5073000;28;19998;-57
2022/09/08 10:52:49;;;;;;;;;;;26.10;95.60;;;;;;5103866;28;20005;-58
2022/09/08 10:55:34;;;;;;;;;;;26.10;95.60;;;;;;5103970;28;19942;-57
2022/09/08 10:58:05;;;;;;;;;;;26.10;95.70;;;;;;5107285;28;19912;-56
2022/09/08 11:00:35;;;;;;;;;;;26.10;95.60;;;;;;5107813;28;19908;-54
2022/09/08 11:03:01;;;;;;;;;;;26.10;95.60;;;;;;5107432;28;19916;-56
2022/09/08 11:05:40;;;;;;;;;;;26.10;95.60;;;;;;5107613;28;19904;-54
2022/09/08 11:08:19;;;;;;;;;;;26.10;95.60;;;;;;5107090;28;20142;-56
2022/09/08 11:11:03;;;;;;;;;;;26.10;95.60;;;;;;5107819;28;19915;-55
2022/09/08 11:13:33;;;;;;;;;;;26.10;95.70;;;;;;5107794;28;20007;-55
2022/09/08 11:16:05;;;;;;;;;;;26.10;95.70;;;;;;5107495;28;19961;-54
2022/09/08 11:18:38;;;;;;;;;;;26.10;95.80;;;;;;5107079;28;19916;-56
2022/09/08 11:21:10;;;;;;;;;;;26.10;95.80;;;;;;5107110;28;19907;-55
2022/09/08 11:23:39;;;;;;;;;;;26.10;95.80;;;;;;5106931;28;19912;-56
2022/09/08 11:26:11;;;;;;;;;;;26.10;95.80;;;;;;5107456;28;19908;-56
2022/09/08 11:28:57;;;;;;;;;;;26.10;95.80;;;;;;5107036;28;19916;-55
2022/09/08 11:31:37;;;;;;;;;;;26.10;95.80;;;;;;5106437;28;20079;-56
2022/09/08 11:34:15;;;;;;;;;;;26.10;95.90;;;;;;5106788;28;20197;-55
2022/09/08 11:36:44;;;;;;;;;;;26.10;95.90;;;;;;5106885;28;19931;-57
2022/09/08 11:39:16;;;;;;;;;;;26.10;95.90;;;;;;5106786;28;19915;-56
2022/09/08 11:42:09;;;;;;;;;;;26.10;95.90;;;;;;5106597;28;20250;-56
2022/09/08 11:44:39;;;;;;;;;;;26.10;95.90;;;;;;5103124;28;19909;-56
2022/09/08 11:47:23;;;;;;;;;;;26.10;95.90;;;;;;5106539;28;19912;-57
2022/09/08 11:50:07;;;;;;;;;;;26.10;95.90;;;;;;5106795;28;19930;-58
2022/09/08 11:52:47;;;;;;;;;;;26.10;95.90;;;;;;5106440;28;19915;-57
2022/09/08 11:55:24;;;;;;;;;;;26.10;95.90;;;;;;5106605;28;19975;-56
2022/09/08 11:57:53;;;;;;;;;;;26.10;95.90;;;;;;5106359;28;19979;-60
2022/09/08 12:00:20;;;;;;;;;;;26.10;95.90;;;;;;5106661;28;19949;-53
2022/09/08 12:03:04;;;;;;;;;;;26.10;95.90;;;;;;5106266;28;19908;-57
2022/09/08 12:05:42;;;;;;;;;;;26.10;95.90;;;;;;5106465;28;19908;-58
2022/09/08 12:08:19;;;;;;;;;;;26.10;95.90;;;;;;5104885;28;19912;-55
2022/09/08 12:10:48;;;;;;;;;;;26.10;96.00;;;;;;5106492;28;19908;-57
2022/09/08 12:13:32;;;;;;;;;;;26.20;96.00;;;;;;5105946;28;19912;-55
2022/09/08 12:16:30;;;;;;;;;;;26.20;96.10;;;;;;5106202;28;19912;-57
2022/09/08 12:19:02;;;;;;;;;;;26.20;96.10;;;;;;5061265;28;20111;-56
2022/09/08 12:21:32;;;;;;;;;;;26.20;96.10;;;;;;5106010;28;19947;-58
2022/09/08 12:24:11;;;;;;;;;;;26.20;96.10;;;;;;5105624;28;19908;-57
2022/09/08 12:26:50;;;;;;;;;;;26.20;96.00;;;;;;5105822;28;19963;-58
2022/09/08 12:29:22;;;;;;;;;;;26.30;96.00;;;;;;5106039;28;20172;-56
2022/09/08 12:31:58;;;;;;;;;;;26.30;95.90;;;;;;5105787;28;19912;-57
2022/09/08 12:34:27;;;;;;;;;;;26.30;95.80;;;;;;5105680;28;19954;-57
2022/09/08 12:37:02;;;;;;;;;;;26.30;95.80;;;;;;5105619;28;19989;-56
2022/09/08 12:39:39;;;;;;;;;;;26.30;95.80;;;;;;5105826;28;19908;-55
2022/09/08 12:42:14;;;;;;;;;;;26.30;95.70;;;;;;5105572;28;19912;-53
2022/09/08 12:44:56;;;;;;;;;;;26.30;95.70;;;;;;5105746;28;19912;-55
2022/09/08 12:47:34;;;;;;;;;;;26.40;95.70;;;;;;5105545;28;19912;-56
2022/09/08 12:50:06;;;;;;;;;;;26.40;95.60;;;;;;5105663;28;19908;-58
2022/09/08 12:52:41;;;;;;;;;;;26.40;95.60;;;;;;5105334;28;19912;-56
2022/09/08 12:55:21;;;;;;;;;;;26.40;95.60;;;;;;5105547;28;19916;-56
2022/09/08 12:57:56;;;;;;;;;;;26.50;95.60;;;;;;5105397;28;19919;-56
2022/09/08 13:00:29;;;;;;;;;;;26.50;95.60;;;;;;5105435;28;19939;-55
2022/09/08 13:02:59;;;;;;;;;;;26.50;95.50;;;;;;5105241;28;19919;-62
2022/09/08 13:05:34;;;;;;;;;;;26.50;95.40;;;;;;5104690;28;19946;-60
2022/09/08 13:08:12;;;;;;;;;;;26.50;95.40;;;;;;5104981;28;19919;-54
2022/09/08 13:10:40;;;;;;;;;;;26.50;95.60;;;;;;5105366;28;19915;-55
2022/09/08 13:13:07;;;;;;;;;;;26.50;95.50;;;;;;5105051;28;20247;-55
2022/09/08 13:15:35;;;;;;;;;;;26.60;95.50;;;;;;5104879;28;19912;-53
2022/09/08 13:18:21;;;;;;;;;;;26.60;95.40;;;;;;5104794;28;19920;-53
2022/09/08 13:21:02;;;;;;;;;;;26.60;95.40;;;;;;5063159;28;19953;-58
2022/09/08 13:23:31;;;;;;;;;;;26.60;95.40;;;;;;5104874;28;19947;-57
2022/09/08 13:26:16;;;;;;;;;;;26.60;95.40;;;;;;5105125;28;19961;-55
2022/09/08 13:28:42;;;;;;;;;;;26.60;95.40;;;;;;5104660;28;20104;-55
2022/09/08 13:31:17;;;;;;;;;;;26.60;95.40;;;;;;5105050;28;19915;-52
2022/09/08 13:33:49;;;;;;;;;;;26.70;95.40;;;;;;5104718;28;19912;-57
2022/09/08 13:36:18;;;;;;;;;;;26.70;95.40;;;;;;5104627;28;19916;-53
2022/09/08 13:39:03;;;;;;;;;;;26.70;95.40;;;;;;5104603;28;19923;-53
2022/09/08 13:41:48;;;;;;;;;;;26.70;95.30;;;;;;5104667;28;20192;-56
2022/09/08 13:44:21;;;;;;;;;;;26.70;95.30;;;;;;5104693;28;19908;-61
2022/09/08 13:46:56;;;;;;;;;;;26.70;95.30;;;;;;5104450;28;19919;-55
2022/09/08 13:49:25;;;;;;;;;;;26.70;95.30;;;;;;5104557;28;19908;-55
2022/09/08 13:52:10;;;;;;;;;;;26.70;95.20;;;;;;5104388;28;19986;-56
2022/09/08 13:54:42;;;;;;;;;;;26.80;95.20;;;;;;5104362;28;19915;-53
2022/09/08 13:57:17;;;;;;;;;;;26.80;95.20;;;;;;5104381;28;20200;-54
2022/09/08 14:00:04;;;;;;;;;;;26.80;95.10;;;;;;5104405;28;19908;-55
2022/09/08 14:02:30;;;;;;;;;;;26.80;95.00;;;;;;5104448;28;19912;-54
2022/09/08 14:05:03;;;;;;;;;;;26.80;95.00;;;;;;5104293;28;19908;-61
2022/09/08 14:07:32;;;;;;;;;;;26.80;95.00;;;;;;5104186;28;20197;-54
2022/09/08 14:10:27;;;;;;;;;;;26.80;95.00;;;;;;5104507;28;20188;-56
2022/09/08 14:12:57;;;;;;;;;;;26.80;94.80;;;;;;5032543;28;19914;-58
2022/09/08 14:15:27;;;;;;;;;;;26.80;95.00;;;;;;5104225;28;19919;-54
2022/09/08 14:18:05;;;;;;;;;;;26.80;94.90;;;;;;5103969;28;19920;-57
2022/09/08 14:21:03;;;;;;;;;;;26.80;94.80;;;;;;5104356;28;19916;-54
2022/09/08 14:23:50;;;;;;;;;;;26.90;94.90;;;;;;5059516;28;19950;-55
2022/09/08 14:26:22;;;;;;;;;;;26.80;95.10;;;;;;5063605;28;19935;-55
2022/09/08 14:29:11;;;;;;;;;;;26.90;94.80;;;;;;5103891;28;19941;-56
2022/09/08 14:31:46;;;;;;;;;;;26.90;94.90;;;;;;5067688;28;19912;-54
2022/09/08 14:34:19;;;;;;;;;;;26.90;94.90;;;;;;5107924;28;19915;-56
2022/09/08 14:36:52;;;;;;;;;;;26.90;94.80;;;;;;5107872;28;20146;-58
2022/09/08 14:39:30;;;;;;;;;;;26.90;94.70;;;;;;5108117;28;19953;-55
2022/09/08 14:42:16;;;;;;;;;;;26.90;94.70;;;;;;5107946;28;19912;-54
2022/09/08 14:44:48;;;;;;;;;;;26.90;94.70;;;;;;5107824;28;19915;-55
2022/09/08 14:47:26;;;;;;;;;;;26.90;94.50;;;;;;5107729;28;20021;-61